createdAt,value
2018-06-03T11:36:03.145Z,174.38
2018-06-03T11:37:02.562Z,180.00
2018-06-03T11:38:55.389Z,191.25
2018-06-03T11:39:55.360Z,191.25
2018-06-03T11:41:48.271Z,213.75
2018-06-03T11:42:48.221Z,191.25
2018-06-03T11:43:48.201Z,185.63
2018-06-03T11:44:48.171Z,208.13
2018-06-03T11:45:48.163Z,196.88
2018-06-03T11:46:48.127Z,191.25
2018-06-03T11:47:48.119Z,185.63
2018-06-03T11:48:48.093Z,191.25
2018-06-03T11:49:48.108Z,213.75
2018-06-03T11:50:48.054Z,219.38
2018-06-03T11:51:48.032Z,202.50
2018-06-03T11:52:48.004Z,202.50
2018-06-03T11:53:47.992Z,258.75
2018-06-03T11:54:47.962Z,208.13
2018-06-03T11:55:47.947Z,241.88
2018-06-03T11:56:47.922Z,303.75
2018-06-03T11:57:47.904Z,275.63
2018-06-03T11:58:47.885Z,281.25
2018-06-03T11:59:47.860Z,253.13
2018-06-03T12:00:47.848Z,270.00
2018-06-03T12:01:47.833Z,253.13
2018-06-03T12:02:47.803Z,247.50
2018-06-03T12:03:47.790Z,253.13
2018-06-03T12:04:47.760Z,230.63
2018-06-03T12:05:47.748Z,236.25
2018-06-03T12:06:47.717Z,241.88
2018-06-03T12:07:47.705Z,241.88
2018-06-03T12:08:47.680Z,247.50
2018-06-03T12:09:47.662Z,258.75
2018-06-03T12:10:47.645Z,270.00
2018-06-03T12:11:47.627Z,315.00
2018-06-03T12:12:47.604Z,315.00
2018-06-03T12:13:47.584Z,247.50
2018-06-03T12:14:47.561Z,270.00
2018-06-03T12:15:47.550Z,354.38
2018-06-03T12:16:47.519Z,264.38
2018-06-03T12:17:47.508Z,247.50
2018-06-03T12:18:47.487Z,241.88
2018-06-03T12:19:47.473Z,258.75
2018-06-03T12:20:47.459Z,253.13
2018-06-03T12:21:47.425Z,247.50
2018-06-03T12:22:47.412Z,247.50
2018-06-03T12:23:47.385Z,275.63
2018-06-03T12:24:47.372Z,191.25
2018-06-03T12:25:47.406Z,281.25
2018-06-03T12:26:47.339Z,208.13
2018-06-03T12:27:47.307Z,213.75
2018-06-03T12:28:47.293Z,196.88
2018-06-03T12:29:47.269Z,219.38
2018-06-03T12:30:47.253Z,258.75
2018-06-03T12:31:47.461Z,225.00
2018-06-03T12:32:47.223Z,236.25
2018-06-03T12:33:47.186Z,247.50
2018-06-03T12:34:47.175Z,258.75
2018-06-03T12:35:47.157Z,247.50
2018-06-03T12:36:47.133Z,219.38
2018-06-03T12:37:47.117Z,219.38
2018-06-03T12:38:47.091Z,219.38
2018-06-03T12:39:47.080Z,213.75
2018-06-03T12:40:47.061Z,208.13
2018-06-03T12:41:47.045Z,202.50
2018-06-03T12:42:47.026Z,208.13
2018-06-03T12:43:46.990Z,213.75
2018-06-03T12:44:46.981Z,219.38
2018-06-03T12:45:46.974Z,230.63
2018-06-03T12:46:46.955Z,241.88
2018-06-03T12:47:46.916Z,275.63
2018-06-03T12:48:46.901Z,275.63
2018-06-03T12:49:46.882Z,303.75
2018-06-03T12:50:46.854Z,281.25
2018-06-03T12:51:46.836Z,247.50
2018-06-03T12:52:46.820Z,236.25
2018-06-03T12:53:46.803Z,225.00
2018-06-03T12:54:46.790Z,219.38
2018-06-03T12:55:46.766Z,213.75
2018-06-03T12:56:46.748Z,213.75
2018-06-03T12:57:46.739Z,219.38
2018-06-03T12:58:46.702Z,253.13
2018-06-03T12:59:46.687Z,241.88
2018-06-03T13:00:46.675Z,219.38
2018-06-03T13:01:46.656Z,208.13
2018-06-03T13:02:46.634Z,213.75
2018-06-03T13:03:46.609Z,241.88
2018-06-03T13:04:46.600Z,219.38
2018-06-03T13:05:46.578Z,213.75
2018-06-03T13:06:46.554Z,208.13
2018-06-03T13:07:46.536Z,219.38
2018-06-03T13:08:46.531Z,225.00
2018-06-03T13:09:46.506Z,230.63
2018-06-03T13:10:46.476Z,225.00
2018-06-03T13:11:46.459Z,219.38
2018-06-03T13:12:46.447Z,219.38
2018-06-03T13:13:46.423Z,213.75
2018-06-03T13:14:46.401Z,213.75
2018-06-03T13:15:46.385Z,213.75
2018-06-03T13:16:46.365Z,213.75
2018-06-03T13:17:46.349Z,213.75
2018-06-03T13:18:46.325Z,213.75
2018-06-03T13:19:46.313Z,213.75
2018-06-03T13:20:46.285Z,180.00
2018-06-03T13:21:46.276Z,180.00
2018-06-03T13:22:46.265Z,185.63
2018-06-03T13:23:46.233Z,185.63
2018-06-03T13:24:46.213Z,191.25
2018-06-03T13:25:46.194Z,202.50
2018-06-03T13:26:46.172Z,213.75
2018-06-03T13:27:46.224Z,208.13
2018-06-03T13:28:46.134Z,213.75
2018-06-03T13:29:46.132Z,225.00
2018-06-03T13:30:46.094Z,247.50
2018-06-03T13:31:46.083Z,275.63
2018-06-03T13:32:46.062Z,298.13
2018-06-03T13:33:46.039Z,315.00
2018-06-03T13:34:46.024Z,326.25
2018-06-03T13:35:45.999Z,326.25
2018-06-03T13:36:45.990Z,320.63
2018-06-03T13:37:45.963Z,315.00
2018-06-03T13:38:45.951Z,309.38
2018-06-03T13:39:45.931Z,286.88
2018-06-03T13:40:45.906Z,275.63
2018-06-03T13:41:45.895Z,270.00
2018-06-03T13:42:45.876Z,281.25
2018-06-03T13:43:45.851Z,281.25
2018-06-03T13:44:45.839Z,298.13
2018-06-03T13:45:45.821Z,309.38
2018-06-03T13:46:45.802Z,303.75
2018-06-03T13:47:45.776Z,309.38
2018-06-03T13:48:45.766Z,315.00
2018-06-03T13:49:45.744Z,315.00
2018-06-03T13:50:45.733Z,303.75
2018-06-03T13:51:45.704Z,303.75
2018-06-03T13:52:45.691Z,292.50
2018-06-03T13:53:45.673Z,264.38
2018-06-03T13:54:45.648Z,275.63
2018-06-03T13:55:45.633Z,275.63
2018-06-03T13:56:45.619Z,281.25
2018-06-03T13:57:45.590Z,281.25
2018-06-03T13:58:45.576Z,275.63
2018-06-03T13:59:45.566Z,275.63
2018-06-03T14:00:45.539Z,275.63
2018-06-03T14:01:45.520Z,275.63
2018-06-03T14:02:45.540Z,270.00
2018-06-03T14:03:45.495Z,258.75
2018-06-03T14:04:45.469Z,253.13
2018-06-03T14:05:45.453Z,253.13
2018-06-03T14:06:45.428Z,253.13
2018-06-03T14:07:45.407Z,253.13
2018-06-03T14:08:45.400Z,258.75
2018-06-03T14:09:45.377Z,258.75
2018-06-03T14:10:45.357Z,253.13
2018-06-03T14:11:45.335Z,258.75
2018-06-03T14:12:45.326Z,247.50
2018-06-03T14:13:45.298Z,247.50
2018-06-03T14:14:45.283Z,258.75
2018-06-03T14:15:45.265Z,275.63
2018-06-03T14:16:45.244Z,281.25
2018-06-03T14:17:45.227Z,292.50
2018-06-03T14:18:45.214Z,298.13
2018-06-03T14:19:45.189Z,309.38
2018-06-03T14:20:45.183Z,309.38
2018-06-03T14:21:45.154Z,320.63
2018-06-03T14:22:45.141Z,331.88
2018-06-03T14:23:45.121Z,326.25
2018-06-03T14:24:45.103Z,331.88
2018-06-03T14:25:45.135Z,326.25
2018-06-03T14:26:45.065Z,315.00
2018-06-03T14:27:45.052Z,309.38
2018-06-03T14:28:45.026Z,303.75
2018-06-03T14:29:45.014Z,303.75
2018-06-03T14:30:44.997Z,298.13
2018-06-03T14:31:44.983Z,303.75
2018-06-03T14:32:44.966Z,298.13
2018-06-03T14:33:44.939Z,292.50
2018-06-03T14:34:44.939Z,286.88
2018-06-03T14:35:44.908Z,281.25
2018-06-03T14:36:44.885Z,286.88
2018-06-03T14:37:44.882Z,292.50
2018-06-03T14:38:44.860Z,292.50
2018-06-03T14:39:44.833Z,275.63
2018-06-03T14:40:44.814Z,281.25
2018-06-03T14:41:44.800Z,292.50
2018-06-03T14:42:44.778Z,298.13
2018-06-03T14:43:44.757Z,303.75
2018-06-03T14:44:44.745Z,292.50
2018-06-03T14:45:44.733Z,270.00
2018-06-03T14:46:44.711Z,258.75
2018-06-03T14:47:44.693Z,241.88
2018-06-03T14:48:44.670Z,230.63
2018-06-03T14:49:44.650Z,213.75
2018-06-03T14:50:44.701Z,208.13
2018-06-03T14:51:44.622Z,208.13
2018-06-03T14:52:44.594Z,213.75
2018-06-03T14:53:44.583Z,230.63
2018-06-03T14:54:44.557Z,247.50
2018-06-03T14:55:44.546Z,253.13
2018-06-03T14:56:44.525Z,258.75
2018-06-03T14:57:44.509Z,275.63
2018-06-03T14:58:44.443Z,258.75
2018-06-03T14:59:44.422Z,258.75
2018-06-03T15:00:44.402Z,258.75
2018-06-03T15:01:44.386Z,281.25
2018-06-03T15:02:44.363Z,270.00
2018-06-03T15:03:44.347Z,270.00
2018-06-03T15:04:44.337Z,253.13
2018-06-03T15:05:44.315Z,247.50
2018-06-03T15:06:44.297Z,230.63
2018-06-03T15:07:44.281Z,219.38
2018-06-03T15:08:44.258Z,219.38
2018-06-03T15:09:44.248Z,225.00
2018-06-03T15:10:44.225Z,253.13
2018-06-03T15:11:44.211Z,241.88
2018-06-03T15:12:44.192Z,247.50
2018-06-03T15:13:44.207Z,253.13
2018-06-03T15:14:44.147Z,253.13
2018-06-03T15:15:44.136Z,258.75
2018-06-03T15:16:44.115Z,275.63
2018-06-03T15:17:44.095Z,275.63
2018-06-03T15:18:44.081Z,270.00
2018-06-03T15:19:44.075Z,258.75
2018-06-03T15:20:44.065Z,253.13
2018-06-03T15:21:44.043Z,247.50
2018-06-03T15:22:44.032Z,241.88
2018-06-03T15:23:44.014Z,236.25
2018-06-03T15:24:44.010Z,230.63
2018-06-03T15:25:43.992Z,219.38
2018-06-03T15:26:43.972Z,219.38
2018-06-03T15:27:43.957Z,213.75
2018-06-03T15:28:43.936Z,208.13
2018-06-03T15:29:43.924Z,208.13
2018-06-03T15:30:43.905Z,208.13
2018-06-03T15:31:43.884Z,208.13
2018-06-03T15:32:43.877Z,208.13
2018-06-03T15:33:43.890Z,208.13
2018-06-03T15:34:43.856Z,213.75
2018-06-03T15:35:43.812Z,208.13
2018-06-03T15:36:43.802Z,202.50
2018-06-03T15:37:43.785Z,202.50
2018-06-03T15:38:43.773Z,208.13
2018-06-03T15:39:43.747Z,202.50
2018-06-03T15:40:44.013Z,196.88
2018-06-03T15:41:43.710Z,208.13
2018-06-03T15:42:43.701Z,208.13
2018-06-03T15:43:43.722Z,180.00
2018-06-03T15:44:43.656Z,196.88
2018-06-03T15:45:43.643Z,208.13
2018-06-03T15:46:43.613Z,208.13
2018-06-03T15:47:43.601Z,208.13
2018-06-03T15:48:43.590Z,208.13
2018-06-03T15:49:43.578Z,213.75
2018-06-03T15:50:43.545Z,213.75
2018-06-03T15:51:43.532Z,213.75
2018-06-03T15:52:43.509Z,208.13
2018-06-03T15:53:43.497Z,208.13
2018-06-03T15:54:43.474Z,208.13
2018-06-03T15:55:43.460Z,208.13
2018-06-03T15:56:43.432Z,208.13
2018-06-03T15:57:43.423Z,202.50
2018-06-03T15:58:43.397Z,202.50
2018-06-03T15:59:43.384Z,202.50
2018-06-03T16:00:43.364Z,202.50
2018-06-03T16:01:43.349Z,196.88
2018-06-03T16:02:43.326Z,196.88
2018-06-03T16:03:43.316Z,196.88
2018-06-03T16:04:43.295Z,196.88
2018-06-03T16:05:43.306Z,202.50
2018-06-03T16:06:43.251Z,202.50
2018-06-03T16:07:43.239Z,208.13
2018-06-03T16:08:43.218Z,241.88
2018-06-03T16:09:43.205Z,348.75
2018-06-03T16:10:43.187Z,444.38
2018-06-03T16:11:43.170Z,466.88
2018-06-03T16:12:43.146Z,472.50
2018-06-03T16:13:43.180Z,489.38
2018-06-03T16:14:43.110Z,495.00
2018-06-03T16:15:43.128Z,500.63
2018-06-03T16:16:43.076Z,506.25
2018-06-03T16:17:43.068Z,517.50
2018-06-03T16:18:43.043Z,523.13
2018-06-03T16:19:43.030Z,540.00
2018-06-03T16:20:43.018Z,545.63
2018-06-03T16:21:42.998Z,568.13
2018-06-03T16:22:42.987Z,590.63
2018-06-03T16:23:42.965Z,607.50
2018-06-03T16:24:42.956Z,607.50
2018-06-03T16:25:42.948Z,607.50
2018-06-03T16:26:42.935Z,613.13
2018-06-03T16:27:42.958Z,624.38
2018-06-03T16:28:42.888Z,641.25
2018-06-03T16:29:42.873Z,652.50
2018-06-03T16:30:42.916Z,646.88
2018-06-03T16:31:42.911Z,652.50
2018-06-03T16:32:42.825Z,669.38
2018-06-03T16:33:42.811Z,675.00
2018-06-03T16:34:42.790Z,680.63
2018-06-03T16:35:42.796Z,703.13
2018-06-03T16:36:42.768Z,714.38
2018-06-03T16:37:42.749Z,731.25
2018-06-03T16:38:42.733Z,731.25
2018-06-03T16:39:42.727Z,742.50
2018-06-03T16:40:42.728Z,753.75
2018-06-03T16:41:42.698Z,770.63
2018-06-03T16:42:42.690Z,776.25
2018-06-03T16:43:42.671Z,776.25
2018-06-03T16:44:42.668Z,776.25
2018-06-03T16:45:42.653Z,776.25
2018-06-03T16:46:42.650Z,776.25
2018-06-03T16:47:42.635Z,776.25
2018-06-03T16:48:42.637Z,787.50
2018-06-03T16:49:42.611Z,793.13
2018-06-03T16:50:42.675Z,781.88
2018-06-03T16:51:42.580Z,787.50
2018-06-03T16:52:42.584Z,781.88
2018-06-03T16:53:42.563Z,798.75
2018-06-03T16:54:42.549Z,810.00
2018-06-03T16:55:42.539Z,826.88
2018-06-03T16:56:42.539Z,810.00
2018-06-03T16:57:42.525Z,787.50
2018-06-03T16:58:42.517Z,776.25
2018-06-03T16:59:42.513Z,765.00
2018-06-03T17:00:42.485Z,759.38
2018-06-03T17:01:42.482Z,759.38
2018-06-03T17:02:43.373Z,753.75
2018-06-03T17:03:42.455Z,742.50
2018-06-03T17:04:42.454Z,731.25
2018-06-03T17:05:42.474Z,708.75
2018-06-03T17:06:42.419Z,697.50
2018-06-03T17:07:42.423Z,720.00
2018-06-03T17:08:42.400Z,714.38
2018-06-03T17:09:42.400Z,720.00
2018-06-03T17:10:42.378Z,731.25
2018-06-03T17:11:42.374Z,731.25
2018-06-03T17:12:42.359Z,725.63
2018-06-03T17:13:42.351Z,725.63
2018-06-03T17:14:42.350Z,725.63
2018-06-03T17:15:42.325Z,720.00
2018-06-03T17:16:42.343Z,720.00
2018-06-03T17:17:42.302Z,720.00
2018-06-03T17:18:42.305Z,720.00
2018-06-03T17:19:42.286Z,714.38
2018-06-03T17:20:42.284Z,703.13
2018-06-03T17:21:42.266Z,697.50
2018-06-03T17:22:42.257Z,697.50
2018-06-03T17:23:42.251Z,691.88
2018-06-03T17:24:42.233Z,686.25
2018-06-03T17:25:42.223Z,680.63
2018-06-03T17:26:42.217Z,686.25
2018-06-03T17:27:42.200Z,663.75
2018-06-03T17:28:42.191Z,652.50
2018-06-03T17:29:42.193Z,624.38
2018-06-03T17:30:42.164Z,613.13
2018-06-03T17:31:42.158Z,607.50
2018-06-03T17:32:42.152Z,601.88
2018-06-03T17:33:42.143Z,590.63
2018-06-03T17:34:42.121Z,573.75
2018-06-03T17:35:42.107Z,556.88
2018-06-03T17:36:42.104Z,545.63
2018-06-03T17:37:42.092Z,528.75
2018-06-03T17:38:42.076Z,511.88
2018-06-03T17:39:42.071Z,489.38
2018-06-03T17:40:42.052Z,472.50
2018-06-03T17:41:42.050Z,444.38
2018-06-03T17:42:42.098Z,438.75
2018-06-03T17:43:42.021Z,427.50
2018-06-03T17:44:42.014Z,388.13
2018-06-03T17:45:42.001Z,360.00
2018-06-03T17:46:41.983Z,343.13
2018-06-03T17:47:41.967Z,320.63
2018-06-03T17:48:41.964Z,292.50
2018-06-03T17:49:41.947Z,286.88
2018-06-03T17:50:41.979Z,258.75
2018-06-03T17:51:41.918Z,241.88
2018-06-03T17:52:41.946Z,230.63
2018-06-03T17:53:41.900Z,225.00
2018-06-03T17:54:41.879Z,213.75
2018-06-03T17:55:41.871Z,208.13
2018-06-03T17:56:41.852Z,208.13
2018-06-03T17:57:41.839Z,208.13
2018-06-03T17:58:41.827Z,213.75
2018-06-03T17:59:41.818Z,219.38
2018-06-03T18:00:41.791Z,247.50
2018-06-03T18:01:41.785Z,247.50
2018-06-03T18:02:41.780Z,253.13
2018-06-03T18:03:41.765Z,258.75
2018-06-03T18:04:41.734Z,253.13
2018-06-03T18:05:41.741Z,253.13
2018-06-03T18:06:41.700Z,258.75
2018-06-03T18:07:41.690Z,258.75
2018-06-03T18:08:41.671Z,270.00
2018-06-03T18:09:41.660Z,281.25
2018-06-03T18:10:41.653Z,286.88
2018-06-03T18:11:41.626Z,275.63
2018-06-03T18:12:41.613Z,258.75
2018-06-03T18:13:41.593Z,247.50
2018-06-03T18:14:41.578Z,225.00
2018-06-03T18:15:41.557Z,208.13
2018-06-03T18:16:41.549Z,196.88
2018-06-03T18:17:41.522Z,180.00
2018-06-03T18:18:41.516Z,168.75
2018-06-03T18:19:41.489Z,157.50
2018-06-03T18:20:41.481Z,146.25
2018-06-03T18:21:41.458Z,140.63
2018-06-03T18:22:41.450Z,135.00
2018-06-03T18:23:41.425Z,123.75
2018-06-03T18:24:41.410Z,118.13
2018-06-03T18:25:41.389Z,112.50
2018-06-03T18:26:41.376Z,106.88
2018-06-03T18:27:41.360Z,101.25
2018-06-03T18:28:41.334Z,101.25
2018-06-03T18:29:41.324Z,95.63
2018-06-03T18:30:41.297Z,90.00
2018-06-03T18:31:41.286Z,90.00
2018-06-03T18:32:41.265Z,84.38
2018-06-03T18:33:41.281Z,84.38
2018-06-03T18:34:41.232Z,84.38
2018-06-03T18:35:41.207Z,84.38
2018-06-03T18:36:41.198Z,84.38
2018-06-03T18:37:41.178Z,78.75
2018-06-03T18:38:41.157Z,78.75
2018-06-03T18:39:41.146Z,78.75
2018-06-03T18:40:41.120Z,73.13
2018-06-03T18:41:41.104Z,73.13
2018-06-03T18:42:41.082Z,67.50
2018-06-03T18:43:41.063Z,67.50
2018-06-03T18:44:41.041Z,67.50
2018-06-03T18:45:41.032Z,61.88
2018-06-03T18:46:41.004Z,61.88
2018-06-03T18:47:40.997Z,61.88
2018-06-03T18:48:40.971Z,61.88
2018-06-03T18:49:40.954Z,56.25
2018-06-03T18:50:40.930Z,56.25
2018-06-03T18:51:44.469Z,56.25
2018-06-03T18:52:40.896Z,50.63
2018-06-03T18:53:40.877Z,50.63
2018-06-03T18:54:40.850Z,50.63
2018-06-03T18:55:40.834Z,45.00
2018-06-03T18:56:40.817Z,45.00
2018-06-03T18:57:40.817Z,45.00
2018-06-03T18:58:40.779Z,45.00
2018-06-03T18:59:40.759Z,39.38
2018-06-03T19:00:40.738Z,39.38
2018-06-03T19:01:40.718Z,39.38
2018-06-03T19:02:40.698Z,33.75
2018-06-03T19:03:40.680Z,33.75
2018-06-03T19:04:40.657Z,33.75
2018-06-03T19:05:40.638Z,33.75
2018-06-03T19:06:40.627Z,28.13
2018-06-03T19:07:40.599Z,28.13
2018-06-03T19:08:40.585Z,28.13
2018-06-03T19:09:40.554Z,28.13
2018-06-03T19:10:40.552Z,22.50
2018-06-03T19:11:40.529Z,22.50
2018-06-03T19:12:40.499Z,22.50
2018-06-03T19:13:40.546Z,22.50
2018-06-03T19:14:40.463Z,22.50
2018-06-03T19:15:40.445Z,16.88
2018-06-03T19:16:40.422Z,16.88
2018-06-03T19:17:40.398Z,16.88
2018-06-03T19:18:40.385Z,16.88
2018-06-03T19:19:40.366Z,16.88
2018-06-03T19:20:40.345Z,16.88
2018-06-03T19:21:40.328Z,11.25
2018-06-03T19:22:40.301Z,11.25
2018-06-03T19:23:40.288Z,11.25
2018-06-03T19:24:40.264Z,11.25
2018-06-03T19:25:40.242Z,11.25
2018-06-03T19:26:40.224Z,11.25
2018-06-03T19:27:40.208Z,11.25
2018-06-03T19:28:40.189Z,11.25
2018-06-03T19:29:40.165Z,5.63
2018-06-03T19:30:40.152Z,5.63
2018-06-03T19:31:40.130Z,5.63
2018-06-03T19:32:40.102Z,5.63
2018-06-03T19:33:40.095Z,5.63
2018-06-03T19:34:40.061Z,5.63
2018-06-03T19:35:40.044Z,5.63
2018-06-03T19:36:40.022Z,5.63
2018-06-03T19:37:40.005Z,5.63
2018-06-03T19:38:39.986Z,5.63
2018-06-03T19:39:39.960Z,5.63
2018-06-03T19:40:40.000Z,5.63
2018-06-03T19:41:39.924Z,5.63
2018-06-03T19:42:39.909Z,0.00
2018-06-03T19:43:39.886Z,0.00
2018-06-03T19:44:39.866Z,0.00
2018-06-03T19:45:39.841Z,0.00
2018-06-03T19:46:39.829Z,0.00
2018-06-03T19:47:39.803Z,0.00
2018-06-03T19:48:39.787Z,0.00
2018-06-03T19:49:39.766Z,0.00
2018-06-03T19:50:39.740Z,0.00
2018-06-03T19:51:39.737Z,0.00
2018-06-03T19:52:39.697Z,0.00
2018-06-03T19:53:39.686Z,0.00
2018-06-03T19:54:39.654Z,0.00
2018-06-03T19:55:39.644Z,0.00
2018-06-03T19:56:39.614Z,0.00
2018-06-03T19:57:39.604Z,0.00
2018-06-03T19:58:39.578Z,0.00
2018-06-03T19:59:39.554Z,0.00
2018-06-03T20:00:39.538Z,0.00
2018-06-03T20:01:39.512Z,0.00
2018-06-03T20:02:39.493Z,0.00
2018-06-03T20:03:39.496Z,0.00
2018-06-03T20:04:39.456Z,0.00
2018-06-03T20:05:39.432Z,0.00
2018-06-03T20:06:39.419Z,0.00
2018-06-03T20:07:39.395Z,0.00
2018-06-03T20:08:39.372Z,0.00
2018-06-03T20:09:39.357Z,0.00
2018-06-03T20:10:39.335Z,0.00
2018-06-03T20:11:39.315Z,0.00
2018-06-03T20:12:39.294Z,0.00
2018-06-03T20:13:39.334Z,0.00
2018-06-03T20:14:39.260Z,0.00
2018-06-03T20:15:39.226Z,0.00
2018-06-03T20:16:39.208Z,0.00
2018-06-03T20:17:39.245Z,0.00
2018-06-03T20:18:39.168Z,0.00
2018-06-03T20:19:39.146Z,0.00
2018-06-03T20:20:39.126Z,0.00
2018-06-03T20:21:39.140Z,0.00
2018-06-03T20:22:39.088Z,0.00
2018-06-03T20:23:39.059Z,0.00
2018-06-03T20:24:39.121Z,0.00
2018-06-03T20:25:39.023Z,0.00
2018-06-03T20:26:38.995Z,0.00
2018-06-03T20:27:39.030Z,0.00
2018-06-03T20:28:38.957Z,0.00
2018-06-03T20:29:38.944Z,0.00
2018-06-03T20:30:38.934Z,0.00
2018-06-03T20:31:38.900Z,0.00
2018-06-03T20:32:38.877Z,0.00
2018-06-03T20:33:38.871Z,0.00
2018-06-03T20:34:38.834Z,0.00
2018-06-03T20:35:38.889Z,0.00
2018-06-03T20:36:38.785Z,0.00
2018-06-03T20:37:38.774Z,0.00
2018-06-03T20:38:38.741Z,0.00
2018-06-03T20:39:38.726Z,0.00
2018-06-03T20:40:38.705Z,0.00
2018-06-03T20:41:38.683Z,0.00
2018-06-03T20:42:38.676Z,0.00
2018-06-03T20:43:38.640Z,0.00
2018-06-03T20:44:38.633Z,0.00
2018-06-03T20:45:38.602Z,0.00
2018-06-03T20:46:38.575Z,0.00
2018-06-03T20:47:38.564Z,0.00
2018-06-03T20:48:38.532Z,0.00
2018-06-03T20:49:38.522Z,0.00
2018-06-03T20:50:38.493Z,0.00
2018-06-03T20:51:38.470Z,0.00
2018-06-03T20:52:38.506Z,0.00
2018-06-03T20:53:38.427Z,0.00
2018-06-03T20:54:38.412Z,0.00
2018-06-03T20:55:38.385Z,0.00
2018-06-03T20:56:38.366Z,0.00
2018-06-03T20:57:38.342Z,0.00
2018-06-03T20:58:38.323Z,0.00
2018-06-03T20:59:38.298Z,0.00
2018-06-03T21:00:38.286Z,0.00
2018-06-03T21:01:38.257Z,0.00
2018-06-03T21:02:38.238Z,0.00
2018-06-03T21:03:38.213Z,0.00
2018-06-03T21:04:38.199Z,0.00
2018-06-03T21:05:38.166Z,0.00
2018-06-03T21:06:38.154Z,0.00
2018-06-03T21:07:38.129Z,0.00
2018-06-03T21:08:38.110Z,0.00
2018-06-03T21:09:38.091Z,0.00
2018-06-03T21:10:38.065Z,0.00
2018-06-03T21:11:38.036Z,0.00
2018-06-03T21:12:38.023Z,0.00
2018-06-03T21:13:38.010Z,0.00
2018-06-03T21:14:38.017Z,0.00
2018-06-03T21:15:37.954Z,0.00
2018-06-03T21:16:37.940Z,0.00
2018-06-03T21:17:37.917Z,0.00
2018-06-03T21:18:37.917Z,0.00
2018-06-03T21:19:37.883Z,0.00
2018-06-03T21:20:37.848Z,0.00
2018-06-03T21:21:37.829Z,0.00
2018-06-03T21:22:37.802Z,0.00
2018-06-03T21:23:37.776Z,0.00
2018-06-03T21:24:37.793Z,0.00
2018-06-03T21:25:37.779Z,0.00
2018-06-03T21:26:37.779Z,0.00
2018-06-03T21:27:37.696Z,0.00
2018-06-03T21:28:37.677Z,0.00
2018-06-03T21:29:37.657Z,0.00
2018-06-03T21:30:38.463Z,0.00
2018-06-03T21:31:37.627Z,0.00
2018-06-03T21:32:37.597Z,0.00
2018-06-03T21:33:37.597Z,0.00
2018-06-03T21:34:37.538Z,0.00
2018-06-03T21:35:37.520Z,0.00
2018-06-03T21:36:37.508Z,0.00
2018-06-03T21:37:37.482Z,0.00
2018-06-03T21:38:37.456Z,0.00
2018-06-03T21:39:37.439Z,0.00
2018-06-03T21:40:37.446Z,0.00
2018-06-03T21:41:37.394Z,0.00
2018-06-03T21:42:37.365Z,0.00
2018-06-03T21:43:37.408Z,0.00
2018-06-03T21:44:37.324Z,0.00
2018-06-03T21:45:37.304Z,0.00
2018-06-03T21:46:37.280Z,0.00
2018-06-03T21:47:37.263Z,0.00
2018-06-03T21:48:37.247Z,0.00
2018-06-03T21:49:37.220Z,0.00
2018-06-03T21:50:37.201Z,0.00
2018-06-03T21:51:37.177Z,0.00
2018-06-03T21:52:37.153Z,0.00
2018-06-03T21:53:37.184Z,0.00
2018-06-03T21:54:37.106Z,0.00
2018-06-03T21:55:37.085Z,0.00
2018-06-03T21:56:37.072Z,0.00
2018-06-03T21:57:37.050Z,0.00
2018-06-03T21:58:37.031Z,0.00
2018-06-03T21:59:37.007Z,0.00
2018-06-03T22:00:37.061Z,0.00
2018-06-03T22:01:36.953Z,0.00
2018-06-03T22:02:36.933Z,0.00
2018-06-03T22:03:36.916Z,0.00
2018-06-03T22:04:36.889Z,0.00
2018-06-03T22:05:36.877Z,0.00
2018-06-03T22:06:36.843Z,0.00
2018-06-03T22:07:36.839Z,0.00
2018-06-03T22:08:36.801Z,0.00
2018-06-03T22:09:36.783Z,0.00
2018-06-03T22:10:36.757Z,0.00
2018-06-03T22:11:36.789Z,0.00
2018-06-03T22:12:36.773Z,0.00
2018-06-03T22:13:36.697Z,0.00
2018-06-03T22:14:36.672Z,0.00
2018-06-03T22:15:36.643Z,0.00
2018-06-03T22:16:36.641Z,0.00
2018-06-03T22:17:36.606Z,0.00
2018-06-03T22:18:36.580Z,0.00
2018-06-03T22:19:36.559Z,0.00
2018-06-03T22:20:36.536Z,0.00
2018-06-03T22:21:36.518Z,0.00
2018-06-03T22:22:36.493Z,0.00
2018-06-03T22:23:36.469Z,0.00
2018-06-03T22:24:36.455Z,0.00
2018-06-03T22:25:36.435Z,0.00
2018-06-03T22:26:36.437Z,0.00
2018-06-03T22:27:36.382Z,0.00
2018-06-03T22:28:36.366Z,0.00
2018-06-03T22:29:36.343Z,0.00
2018-06-03T22:30:36.318Z,0.00
2018-06-03T22:31:36.293Z,0.00
2018-06-03T22:32:36.274Z,0.00
2018-06-03T22:33:36.254Z,0.00
2018-06-03T22:34:36.224Z,0.00
2018-06-03T22:35:36.212Z,0.00
2018-06-03T22:36:36.187Z,0.00
2018-06-03T22:37:36.167Z,0.00
2018-06-03T22:38:36.142Z,0.00
2018-06-03T22:39:36.120Z,0.00
2018-06-03T22:40:36.098Z,0.00
2018-06-03T22:41:36.070Z,0.00
2018-06-03T22:42:36.055Z,0.00
2018-06-03T22:43:36.027Z,0.00
2018-06-03T22:44:36.013Z,0.00
2018-06-03T22:45:35.983Z,0.00
2018-06-03T22:46:35.968Z,0.00
2018-06-03T22:47:35.946Z,0.00
2018-06-03T22:48:35.920Z,0.00
2018-06-03T22:49:35.901Z,0.00
2018-06-03T22:50:35.877Z,0.00
2018-06-03T22:51:35.853Z,0.00
2018-06-03T22:52:35.835Z,0.00
2018-06-03T22:53:35.808Z,0.00
2018-06-03T22:54:35.788Z,0.00
2018-06-03T22:55:35.761Z,0.00
2018-06-03T22:56:35.742Z,0.00
2018-06-03T22:57:35.717Z,0.00
2018-06-03T22:58:35.704Z,0.00
2018-06-03T22:59:35.685Z,0.00
2018-06-03T23:00:35.649Z,0.00
2018-06-03T23:01:35.634Z,0.00
2018-06-03T23:02:35.613Z,0.00
2018-06-03T23:03:35.583Z,0.00
2018-06-03T23:04:35.571Z,0.00
2018-06-03T23:05:35.544Z,0.00
2018-06-03T23:06:35.518Z,0.00
2018-06-03T23:07:35.502Z,0.00
2018-06-03T23:08:35.475Z,0.00
2018-06-03T23:09:35.469Z,0.00
2018-06-03T23:10:35.431Z,0.00
2018-06-03T23:11:35.413Z,0.00
2018-06-03T23:12:35.388Z,0.00
2018-06-03T23:13:35.362Z,0.00
2018-06-03T23:14:35.337Z,0.00
2018-06-03T23:15:35.325Z,0.00
2018-06-03T23:16:35.303Z,0.00
2018-06-03T23:17:35.277Z,0.00
2018-06-03T23:18:35.252Z,0.00
2018-06-03T23:19:35.239Z,0.00
2018-06-03T23:20:35.204Z,0.00
2018-06-03T23:21:35.189Z,0.00
2018-06-03T23:22:35.162Z,0.00
2018-06-03T23:23:35.148Z,0.00
2018-06-03T23:24:35.121Z,0.00
2018-06-03T23:25:35.100Z,0.00
2018-06-03T23:26:35.069Z,0.00
2018-06-03T23:27:35.054Z,0.00
2018-06-03T23:28:35.027Z,0.00
2018-06-03T23:29:35.020Z,0.00
2018-06-03T23:30:34.988Z,0.00
2018-06-03T23:31:34.967Z,0.00
2018-06-03T23:32:34.937Z,0.00
2018-06-03T23:33:34.923Z,0.00
2018-06-03T23:34:34.889Z,0.00
2018-06-03T23:35:34.874Z,0.00
2018-06-03T23:36:34.851Z,0.00
2018-06-03T23:37:34.828Z,0.00
2018-06-03T23:38:34.803Z,0.00
2018-06-03T23:39:34.785Z,0.00
2018-06-03T23:40:34.769Z,0.00
2018-06-03T23:41:34.733Z,0.00
2018-06-03T23:42:34.721Z,0.00
2018-06-03T23:43:34.714Z,0.00
2018-06-03T23:44:34.671Z,0.00
2018-06-03T23:45:34.645Z,0.00
2018-06-03T23:46:34.627Z,0.00
2018-06-03T23:47:34.599Z,0.00
2018-06-03T23:48:34.584Z,0.00
2018-06-03T23:49:34.552Z,0.00
2018-06-03T23:50:34.539Z,0.00
2018-06-03T23:51:34.522Z,0.00
2018-06-03T23:52:34.494Z,0.00
2018-06-03T23:53:34.473Z,0.00
2018-06-03T23:54:34.440Z,0.00
2018-06-03T23:55:34.425Z,0.00
2018-06-03T23:56:34.394Z,0.00
2018-06-03T23:57:34.407Z,0.00
2018-06-03T23:58:34.354Z,0.00
2018-06-03T23:59:34.337Z,0.00
